Time;durP1;ratioP1;P1;durP2;ratioP2;P2;SDS_P1;SDS_P2;PMS_P1;PMS_P2;Temp;Humidity;BMP_temperature;BMP_pressure;BME280_temperature;BME280_humidity;BME280_pressure;Samples;Min_cycle;Max_cycle;Signal;HPM_P1;HPM_P2
2022/12/17 13:06:40;;;;;;;;;;;;;;;1.27;65.58;102506.22;4996481;28;19916;-71
2022/12/17 13:09:15;;;;;;;;;;;;;;;1.28;65.46;102508.72;4996224;28;19909;-69
2022/12/17 13:11:47;;;;;;;;;;;;;;;1.28;65.44;102500.72;4995948;28;20012;-69
2022/12/17 13:14:15;;;;;;;;;;;;;;;1.29;65.27;102502.44;4996282;28;19909;-67
2022/12/17 13:16:43;;;;;;;;;;;;;;;1.31;65.26;102510.28;4995485;28;19956;-69
2022/12/17 13:19:20;;;;;;;;;;;;;;;1.30;65.13;102511.25;4996034;28;19909;-69
2022/12/17 13:21:46;;;;;;;;;;;;;;;1.30;65.48;102509.41;4996267;28;19916;-69
2022/12/17 13:24:21;;;;;;;;;;;;;;;1.32;65.52;102506.63;4994909;28;19918;-69
2022/12/17 13:26:46;;;;;;;;;;;;;;;1.32;65.51;102506.63;4995735;28;20330;-67
2022/12/17 13:29:20;;;;;;;;;;;;;;;1.33;65.30;102496.81;4993809;28;20378;-69
2022/12/17 13:31:48;;;;;;;;;;;;;;;1.33;65.17;102499.47;4994518;28;19913;-67
2022/12/17 13:34:25;;;;;;;;;;;;;;;1.33;65.49;102494.16;4994714;28;20336;-68
2022/12/17 13:37:03;;;;;;;;;;;;;;;1.33;65.25;102500.31;4995428;28;20075;-68
2022/12/17 13:39:35;;;;;;;;;;;;;;;1.34;65.49;102495.84;4995088;28;19913;-68
2022/12/17 13:42:01;;;;;;;;;;;;;;;1.34;65.34;102501.19;5026854;28;20322;-68
2022/12/17 13:44:30;;;;;;;;;;;;;;;1.34;65.58;102491.38;4995201;28;20373;-67
2022/12/17 13:46:55;;;;;;;;;;;;;;;1.34;65.23;102486.03;4995229;28;19949;-69
2022/12/17 13:49:25;;;;;;;;;;;;;;;1.35;65.59;102481.56;4994944;28;20011;-67
2022/12/17 13:52:04;;;;;;;;;;;;;;;1.35;65.43;102482.38;4995589;28;19920;-68
2022/12/17 13:54:29;;;;;;;;;;;;;;;1.35;65.42;102482.38;4994749;28;20378;-69
2022/12/17 13:57:05;;;;;;;;;;;;;;;1.36;65.56;102486.75;4995036;28;19936;-67
2022/12/17 13:59:30;;;;;;;;;;;;;;;1.36;65.57;102483.22;4995083;28;19957;-67
2022/12/17 14:01:55;;;;;;;;;;;;;;;1.37;65.61;102488.41;4993868;28;19910;-67
2022/12/17 14:04:25;;;;;;;;;;;;;;;1.37;65.55;102490.25;4994929;28;20492;-67
2022/12/17 14:06:51;;;;;;;;;;;;;;;1.37;65.14;102496.41;4994873;28;19918;-68
2022/12/17 14:09:18;;;;;;;;;;;;;;;1.38;65.19;102491.91;4995122;28;19922;-67
2022/12/17 14:14:27;;;;;;;;;;;;;;;1.38;65.51;102497.25;4995236;28;20009;-68
2022/12/17 14:16:53;;;;;;;;;;;;;;;1.38;65.49;102500.75;4994891;28;19949;-68
2022/12/17 14:19:19;;;;;;;;;;;;;;;1.38;65.45;102497.25;4994669;28;19918;-68
2022/12/17 14:21:44;;;;;;;;;;;;;;;1.39;65.51;102494.44;4994663;28;19914;-70
2022/12/17 14:24:12;;;;;;;;;;;;;;;1.40;65.38;102508.59;4994590;28;19967;-66
2022/12/17 14:26:50;;;;;;;;;;;;;;;1.39;65.28;102513.09;4994419;28;19909;-67
2022/12/17 14:29:21;;;;;;;;;;;;;;;1.40;65.48;102511.25;4994258;28;19914;-67
2022/12/17 14:31:58;;;;;;;;;;;;;;;1.40;65.39;102514.75;4993362;28;19909;-69
2022/12/17 14:34:23;;;;;;;;;;;;;;;1.40;65.24;102521.91;4994408;28;19909;-69
2022/12/17 14:36:58;;;;;;;;;;;;;;;1.41;65.31;102521.78;4993926;28;19921;-72
2022/12/17 14:39:31;;;;;;;;;;;;;;;1.40;65.19;102520.09;4994950;28;19920;-69
2022/12/17 14:45:01;;;;;;;;;;;;;;;1.41;65.57;102523.59;4993985;28;20511;-69
2022/12/17 14:47:28;;;;;;;;;;;;;;;1.40;65.48;102529.91;4994910;28;19909;-68
2022/12/17 14:49:56;;;;;;;;;;;;;;;1.41;65.31;102528.91;4994403;28;19917;-68
2022/12/17 14:52:25;;;;;;;;;;;;;;;1.41;65.28;102534.25;4994511;28;20000;-69
2022/12/17 14:54:51;;;;;;;;;;;;;;;1.41;65.29;102524.44;4993108;28;20013;-68
2022/12/17 14:57:18;;;;;;;;;;;;;;;1.42;65.32;102531.44;4994692;28;19956;-69
2022/12/17 14:59:44;;;;;;;;;;;;;;;1.43;65.35;102532.28;4994390;28;20365;-69
2022/12/17 15:02:22;;;;;;;;;;;;;;;1.42;65.49;102533.28;4994080;28;19913;-68
2022/12/17 15:04:48;;;;;;;;;;;;;;;1.41;65.28;102529.78;4993939;28;19909;-69
2022/12/17 15:07:16;;;;;;;;;;;;;;;1.40;65.36;102530.75;4993874;28;20222;-69
2022/12/17 15:09:41;;;;;;;;;;;;;;;1.42;65.47;102541.25;4994748;28;20325;-68
2022/12/17 15:12:07;;;;;;;;;;;;;;;1.41;65.40;102542.22;4994477;28;19914;-69
2022/12/17 15:14:32;;;;;;;;;;;;;;;1.42;65.65;102554.56;4994022;28;19982;-70
2022/12/17 15:16:58;;;;;;;;;;;;;;;1.41;65.72;102551.06;4994105;28;19968;-68
2022/12/17 15:19:23;;;;;;;;;;;;;;;1.42;65.68;102552.75;4995005;28;19913;-69
2022/12/17 15:21:49;;;;;;;;;;;;;;;1.42;65.31;102547.41;4993018;28;19924;-67
2022/12/17 15:24:16;;;;;;;;;;;;;;;1.43;65.49;102543.78;4994427;28;20298;-69
2022/12/17 15:26:41;;;;;;;;;;;;;;;1.43;65.54;102557.09;4994078;28;19965;-73
2022/12/17 15:29:06;;;;;;;;;;;;;;;1.45;65.51;102556.97;4994021;28;19917;-69
2022/12/17 15:31:32;;;;;;;;;;;;;;;1.44;65.62;102550.78;4994122;28;19918;-69
2022/12/17 15:33:57;;;;;;;;;;;;;;;1.45;65.47;102555.13;4994099;28;20381;-69
2022/12/17 15:36:22;;;;;;;;;;;;;;;1.44;65.23;102564.13;4994092;28;20377;-69
2022/12/17 15:38:48;;;;;;;;;;;;;;;1.45;65.40;102562.28;4993935;28;20239;-69
2022/12/17 15:43:57;;;;;;;;;;;;;;;1.45;65.17;102560.47;4994801;28;19920;-70
2022/12/17 15:46:22;;;;;;;;;;;;;;;1.45;65.27;102563.13;4993921;28;19910;-69
2022/12/17 15:48:47;;;;;;;;;;;;;;;1.46;65.55;102558.63;4993408;28;19914;-71
2022/12/17 15:51:12;;;;;;;;;;;;;;;1.45;65.68;102568.44;4993940;28;19914;-69
2022/12/17 15:53:38;;;;;;;;;;;;;;;1.46;65.35;102578.13;4993915;28;20024;-68
2022/12/17 15:56:03;;;;;;;;;;;;;;;1.46;65.40;102578.13;4995036;28;19964;-70
2022/12/17 15:58:29;;;;;;;;;;;;;;;1.46;65.53;102583.47;4997935;28;20412;-69
2022/12/17 16:00:54;;;;;;;;;;;;;;;1.46;65.32;102580.81;4997298;28;19913;-70
2022/12/17 16:03:19;;;;;;;;;;;;;;;1.46;65.26;102577.28;4997217;28;19910;-70
2022/12/17 16:05:45;;;;;;;;;;;;;;;1.47;65.47;102589.63;4996249;28;19956;-73
2022/12/17 16:08:10;;;;;;;;;;;;;;;1.47;65.55;102581.63;4996937;28;20389;-69
2022/12/17 16:10:36;;;;;;;;;;;;;;;1.46;65.32;102582.59;4997317;28;19933;-69
2022/12/17 16:13:01;;;;;;;;;;;;;;;1.47;65.40;102584.31;4997492;28;19917;-69
2022/12/17 16:15:26;;;;;;;;;;;;;;;1.46;65.49;102582.59;4997023;28;19936;-69
2022/12/17 16:17:51;;;;;;;;;;;;;;;1.47;65.33;102581.63;4997894;28;19925;-69
2022/12/17 16:20:16;;;;;;;;;;;;;;;1.46;65.43;102569.28;4997136;28;19933;-70
2022/12/17 16:22:42;;;;;;;;;;;;;;;1.47;65.43;102570.97;4997049;28;19989;-69
2022/12/17 16:25:07;;;;;;;;;;;;;;;1.46;65.45;102577.28;4997255;28;19921;-70
2022/12/17 16:27:32;;;;;;;;;;;;;;;1.47;65.28;102576.31;4997316;28;19909;-69
2022/12/17 16:29:58;;;;;;;;;;;;;;;1.46;65.23;102569.28;4996218;28;19917;-69
2022/12/17 16:32:23;;;;;;;;;;;;;;;1.47;65.51;102571.81;4996918;28;19913;-69
2022/12/17 16:34:48;;;;;;;;;;;;;;;1.46;65.45;102578.13;4996766;28;19921;-69
2022/12/17 16:37:13;;;;;;;;;;;;;;;1.46;65.50;102575.47;4995829;28;20306;-69
2022/12/17 16:39:39;;;;;;;;;;;;;;;1.47;65.24;102581.63;4996793;28;19920;-69
2022/12/17 16:42:04;;;;;;;;;;;;;;;1.46;65.34;102591.44;4996632;28;19913;-69
2022/12/17 16:44:29;;;;;;;;;;;;;;;1.46;65.45;102587.91;4995680;28;19914;-70
2022/12/17 16:46:54;;;;;;;;;;;;;;;1.47;65.17;102597.63;4996164;28;20354;-69
2022/12/17 16:49:21;;;;;;;;;;;;;;;1.47;65.26;102602.94;4996537;28;19956;-69
2022/12/17 16:51:50;;;;;;;;;;;;;;;1.47;65.24;102600.28;4996443;28;19918;-69
2022/12/17 16:54:17;;;;;;;;;;;;;;;1.47;65.48;102605.59;4996255;28;20360;-69
2022/12/17 16:56:43;;;;;;;;;;;;;;;1.46;65.12;102595.91;4996506;28;20008;-69
2022/12/17 16:59:09;;;;;;;;;;;;;;;1.47;65.19;102592.28;4996947;28;19910;-69
2022/12/17 17:01:35;;;;;;;;;;;;;;;1.47;65.11;102593.13;4996603;28;19941;-69
2022/12/17 17:04:02;;;;;;;;;;;;;;;1.45;65.04;102589.75;4996243;28;19909;-70
2022/12/17 17:06:27;;;;;;;;;;;;;;;1.46;65.29;102588.78;4996189;28;19989;-70
2022/12/17 17:08:52;;;;;;;;;;;;;;;1.46;65.42;102598.56;4995498;28;20020;-69
2022/12/17 17:11:20;;;;;;;;;;;;;;;1.45;65.16;102599.56;4995127;28;19913;-69
2022/12/17 17:13:45;;;;;;;;;;;;;;;1.45;65.28;102599.56;4995704;28;19913;-69
2022/12/17 17:16:10;;;;;;;;;;;;;;;1.46;65.12;102610.09;4994641;28;20256;-70
2022/12/17 17:18:36;;;;;;;;;;;;;;;1.45;65.25;102604.88;4996274;28;20330;-69
2022/12/17 17:21:14;;;;;;;;;;;;;;;1.44;65.01;102601.41;4995685;28;20372;-68
2022/12/17 17:23:40;;;;;;;;;;;;;;;1.43;65.16;102606.84;4996124;28;19948;-68
2022/12/17 17:26:05;;;;;;;;;;;;;;;1.42;65.18;102607.84;4995576;28;19910;-68
2022/12/17 17:28:34;;;;;;;;;;;;;;;1.42;65.02;102607.84;4994304;28;19941;-68
2022/12/17 17:30:59;;;;;;;;;;;;;;;1.41;65.05;102612.31;4995137;28;19909;-68
2022/12/17 17:33:32;;;;;;;;;;;;;;;1.41;64.99;102614.13;4994364;28;19937;-68
2022/12/17 17:36:08;;;;;;;;;;;;;;;1.41;65.20;102616.78;4994287;28;20298;-68
2022/12/17 17:38:34;;;;;;;;;;;;;;;1.40;64.95;102613.28;4995340;28;19932;-68
2022/12/17 17:41:00;;;;;;;;;;;;;;;1.40;64.97;102617.78;4995375;28;19921;-68
2022/12/17 17:43:25;;;;;;;;;;;;;;;1.40;64.93;102607.97;4995741;28;19909;-68
2022/12/17 17:45:52;;;;;;;;;;;;;;;1.40;65.08;102607.13;4995566;28;19913;-69
2022/12/17 17:48:17;;;;;;;;;;;;;;;1.41;65.06;102611.47;4995112;28;19917;-70
2022/12/17 17:50:42;;;;;;;;;;;;;;;1.41;65.35;102611.47;4994885;28;20373;-68
2022/12/17 17:53:08;;;;;;;;;;;;;;;1.40;65.40;102620.44;4995180;28;19909;-70
2022/12/17 17:55:33;;;;;;;;;;;;;;;1.41;65.30;102619.44;4994031;28;19964;-68
2022/12/17 17:57:58;;;;;;;;;;;;;;;1.40;64.98;102620.44;4994978;28;19968;-68
2022/12/17 18:00:24;;;;;;;;;;;;;;;1.40;65.16;102623.09;4993868;28;20261;-68
2022/12/17 18:02:49;;;;;;;;;;;;;;;1.39;65.14;102622.25;4977547;28;19930;-69
2022/12/17 18:05:14;;;;;;;;;;;;;;;1.40;64.95;102620.44;4993959;28;20326;-69
2022/12/17 18:07:40;;;;;;;;;;;;;;;1.40;65.01;102612.44;4977620;28;20246;-69
2022/12/17 18:10:05;;;;;;;;;;;;;;;1.41;65.19;102614.13;4993436;28;19914;-67
2022/12/17 18:15:14;;;;;;;;;;;;;;;1.40;65.15;102612.44;4995100;28;20301;-67
2022/12/17 18:17:39;;;;;;;;;;;;;;;1.39;64.75;102611.63;4994917;28;20334;-68
2022/12/17 18:20:05;;;;;;;;;;;;;;;1.40;65.17;102609.78;4993765;28;19914;-68
2022/12/17 18:22:30;;;;;;;;;;;;;;;1.40;64.88;102607.97;4994460;28;19937;-67
2022/12/17 18:24:55;;;;;;;;;;;;;;;1.39;64.97;102605.44;4993040;28;20374;-68
2022/12/17 18:27:21;;;;;;;;;;;;;;;1.39;64.83;102613.44;4994410;28;19914;-69
2022/12/17 18:29:46;;;;;;;;;;;;;;;1.39;64.89;102610.78;4993035;28;20004;-70
2022/12/17 18:32:11;;;;;;;;;;;;;;;1.40;65.22;102599.13;4993191;28;20334;-69
2022/12/17 18:34:36;;;;;;;;;;;;;;;1.39;64.96;102602.78;4993148;28;19910;-71
2022/12/17 18:37:04;;;;;;;;;;;;;;;1.39;65.06;102602.78;4993185;28;19918;-69
2022/12/17 18:39:29;;;;;;;;;;;;;;;1.38;64.97;102599.25;4993338;28;20342;-70
2022/12/17 18:44:40;;;;;;;;;;;;;;;1.38;65.14;102612.56;4994474;28;19972;-70
2022/12/17 18:47:05;;;;;;;;;;;;;;;1.38;64.87;102623.22;4994262;28;19910;-68
2022/12/17 18:49:31;;;;;;;;;;;;;;;1.37;65.14;102613.56;4994113;28;19916;-70
2022/12/17 18:51:57;;;;;;;;;;;;;;;1.38;64.95;102619.72;4994446;28;19913;-67
2022/12/17 18:54:23;;;;;;;;;;;;;;;1.36;65.04;102617.22;4993946;28;20001;-70
2022/12/17 18:56:49;;;;;;;;;;;;;;;1.36;65.12;102613.69;4994066;28;19910;-69
2022/12/17 18:59:15;;;;;;;;;;;;;;;1.36;64.87;102617.22;4994277;28;19914;-69
2022/12/17 19:01:41;;;;;;;;;;;;;;;1.36;64.84;102614.56;4994262;28;20039;-69
2022/12/17 19:04:07;;;;;;;;;;;;;;;1.36;65.08;102611.03;4994250;28;19914;-69
2022/12/17 19:06:33;;;;;;;;;;;;;;;1.36;64.78;102619.88;4994027;28;19921;-69
2022/12/17 19:08:59;;;;;;;;;;;;;;;1.36;64.87;102624.34;4994367;28;19917;-69
2022/12/17 19:11:25;;;;;;;;;;;;;;;1.35;64.74;102623.50;4993982;28;19917;-69
2022/12/17 19:13:50;;;;;;;;;;;;;;;1.34;64.92;102627.16;4993130;28;19921;-69
2022/12/17 19:16:26;;;;;;;;;;;;;;;1.35;64.73;102635.97;4994213;28;19964;-69
2022/12/17 19:18:52;;;;;;;;;;;;;;;1.35;64.92;102643.97;4994481;28;19920;-69
2022/12/17 19:21:18;;;;;;;;;;;;;;;1.35;64.92;102654.63;4994915;28;19913;-70
2022/12/17 19:23:43;;;;;;;;;;;;;;;1.34;64.69;102661.78;4994101;28;20391;-70
2022/12/17 19:26:11;;;;;;;;;;;;;;;1.34;64.82;102650.28;4994526;28;20377;-70
2022/12/17 19:28:38;;;;;;;;;;;;;;;1.33;65.02;102662.72;4994231;28;19918;-70
2022/12/17 19:31:03;;;;;;;;;;;;;;;1.32;64.73;102661.06;4994939;28;19917;-72
2022/12/17 19:33:28;;;;;;;;;;;;;;;1.32;64.78;102662.88;4997879;28;20004;-70
2022/12/17 19:36:01;;;;;;;;;;;;;;;1.32;65.00;102662.88;4998142;28;20028;-70
2022/12/17 19:38:26;;;;;;;;;;;;;;;1.31;65.07;102667.38;4996662;28;19913;-69
2022/12/17 19:40:51;;;;;;;;;;;;;;;1.32;64.58;102669.03;4997639;28;19971;-70
2022/12/17 19:43:17;;;;;;;;;;;;;;;1.32;64.98;102668.22;4997752;28;20282;-69
2022/12/17 19:45:42;;;;;;;;;;;;;;;1.31;64.78;102662.03;4997767;28;19918;-69
2022/12/17 19:48:07;;;;;;;;;;;;;;;1.30;64.96;102658.50;4997311;28;19921;-72
2022/12/17 19:50:32;;;;;;;;;;;;;;;1.30;64.70;102661.19;4997959;28;20251;-69
2022/12/17 19:52:58;;;;;;;;;;;;;;;1.29;64.97;102654.19;4996432;28;19918;-70
2022/12/17 19:55:23;;;;;;;;;;;;;;;1.29;64.97;102654.19;4997474;28;20353;-68
2022/12/17 19:57:48;;;;;;;;;;;;;;;1.29;64.82;102654.19;4997363;28;19914;-69
2022/12/17 20:00:14;;;;;;;;;;;;;;;1.29;64.99;102659.50;4996167;28;19948;-69
2022/12/17 20:02:39;;;;;;;;;;;;;;;1.29;64.69;102658.66;4997485;28;19917;-69
2022/12/17 20:05:04;;;;;;;;;;;;;;;1.29;65.02;102664.81;4997410;28;20119;-68
2022/12/17 20:07:30;;;;;;;;;;;;;;;1.29;64.93;102667.50;4997845;28;19960;-69
2022/12/17 20:09:55;;;;;;;;;;;;;;;1.29;64.54;102669.31;4997822;28;20012;-68
2022/12/17 20:12:20;;;;;;;;;;;;;;;1.27;64.56;102666.78;4997502;28;19920;-69
2022/12/17 20:14:45;;;;;;;;;;;;;;;1.27;64.79;102661.44;4997251;28;19925;-69
2022/12/17 20:17:11;;;;;;;;;;;;;;;1.25;65.02;102660.72;4996846;28;19918;-72
2022/12/17 20:19:36;;;;;;;;;;;;;;;1.26;65.02;102667.75;4997376;28;20326;-69
2022/12/17 20:22:03;;;;;;;;;;;;;;;1.25;64.95;102668.72;4997165;28;19913;-69
2022/12/17 20:24:28;;;;;;;;;;;;;;;1.25;64.89;102668.72;4997771;28;19914;-69
2022/12/17 20:26:53;;;;;;;;;;;;;;;1.26;64.59;102678.41;4996919;28;20347;-69
2022/12/17 20:29:20;;;;;;;;;;;;;;;1.25;64.65;102674.03;4997175;28;19925;-69
2022/12/17 20:31:46;;;;;;;;;;;;;;;1.26;64.79;102672.22;4995702;28;20297;-68
2022/12/17 20:34:13;;;;;;;;;;;;;;;1.25;64.87;102655.41;4996603;28;20004;-72
2022/12/17 20:36:39;;;;;;;;;;;;;;;1.24;64.81;102651.06;4995463;28;19964;-69
2022/12/17 20:39:04;;;;;;;;;;;;;;;1.24;64.85;102656.41;4996342;28;19918;-68
2022/12/17 20:41:30;;;;;;;;;;;;;;;1.24;64.78;102659.06;4996876;28;19913;-68
2022/12/17 20:43:56;;;;;;;;;;;;;;;1.23;64.54;102660.03;4995619;28;19917;-69
2022/12/17 20:46:22;;;;;;;;;;;;;;;1.22;64.58;102662.84;4996591;28;20004;-68
2022/12/17 20:48:47;;;;;;;;;;;;;;;1.23;64.54;102667.16;4996557;28;19920;-69
2022/12/17 20:51:14;;;;;;;;;;;;;;;1.21;64.81;102666.47;4996609;28;19918;-72
2022/12/17 20:53:40;;;;;;;;;;;;;;;1.22;64.70;102657.50;4996295;28;19918;-69
2022/12/17 20:56:10;;;;;;;;;;;;;;;1.21;64.65;102654.00;4996980;28;20258;-69
2022/12/17 20:58:35;;;;;;;;;;;;;;;1.20;64.74;102660.28;4996869;28;19914;-69
2022/12/17 21:01:11;;;;;;;;;;;;;;;1.20;64.53;102659.47;4996372;28;20434;-69
2022/12/17 21:03:36;;;;;;;;;;;;;;;1.20;64.64;102664.78;4996297;28;20008;-68
2022/12/17 21:06:13;;;;;;;;;;;;;;;1.20;64.52;102659.47;4994959;28;19973;-68
2022/12/17 21:08:39;;;;;;;;;;;;;;;1.18;64.40;102662.25;4996595;28;19913;-69
2022/12/17 21:11:04;;;;;;;;;;;;;;;1.18;64.64;102653.41;4996515;28;20325;-69
2022/12/17 21:13:30;;;;;;;;;;;;;;;1.18;64.64;102658.75;4995823;28;20012;-68
2022/12/17 21:15:59;;;;;;;;;;;;;;;1.18;64.73;102656.09;4996056;28;20354;-69
2022/12/17 21:18:26;;;;;;;;;;;;;;;1.17;64.77;102652.59;4996687;28;19914;-69
2022/12/17 21:20:54;;;;;;;;;;;;;;;1.17;64.67;102663.22;4996038;28;19913;-69
2022/12/17 21:23:20;;;;;;;;;;;;;;;1.15;64.55;102653.69;4996129;28;19913;-69
2022/12/17 21:25:45;;;;;;;;;;;;;;;1.15;64.36;102673.16;4994740;28;19972;-68
2022/12/17 21:28:10;;;;;;;;;;;;;;;1.16;64.58;102666.00;4995550;28;19924;-69
2022/12/17 21:30:36;;;;;;;;;;;;;;;1.14;64.58;102660.84;4995858;28;19922;-69
2022/12/17 21:33:01;;;;;;;;;;;;;;;1.14;64.64;102674.16;4995774;28;20285;-69
2022/12/17 21:35:27;;;;;;;;;;;;;;;1.14;64.38;102675.97;4994483;28;19918;-69
2022/12/17 21:37:52;;;;;;;;;;;;;;;1.13;64.61;102677.78;4994178;28;19917;-71
2022/12/17 21:40:17;;;;;;;;;;;;;;;1.13;64.61;102675.09;4995877;28;19924;-69
2022/12/17 21:43:00;;;;;;;;;;;;;;;1.13;64.49;102680.44;4994897;28;19955;-69
2022/12/17 21:45:26;;;;;;;;;;;;;;;1.12;64.30;102689.41;4980405;28;19921;-69
2022/12/17 21:47:51;;;;;;;;;;;;;;;1.12;64.59;102702.72;4993658;28;20282;-69
2022/12/17 21:50:17;;;;;;;;;;;;;;;1.11;64.49;102701.03;4995038;28;19918;-70
2022/12/17 21:52:42;;;;;;;;;;;;;;;1.12;64.50;102692.06;4995052;28;19914;-68
2022/12/17 21:55:07;;;;;;;;;;;;;;;1.11;64.09;102687.72;4993622;28;19977;-68
2022/12/17 21:57:32;;;;;;;;;;;;;;;1.11;64.25;102695.72;4995148;28;19922;-67
2022/12/17 21:59:58;;;;;;;;;;;;;;;1.10;64.49;102701.16;4995484;28;20350;-70
2022/12/17 22:02:23;;;;;;;;;;;;;;;1.09;64.23;102713.63;4995133;28;19917;-68
2022/12/17 22:04:48;;;;;;;;;;;;;;;1.08;64.44;102709.25;4994738;28;19924;-69
2022/12/17 22:07:13;;;;;;;;;;;;;;;1.08;64.62;102720.78;4993396;28;19968;-70
2022/12/17 22:09:38;;;;;;;;;;;;;;;1.08;64.22;102728.75;4994601;28;20369;-70
2022/12/17 22:14:47;;;;;;;;;;;;;;;1.07;64.52;102718.25;4995498;28;20266;-68
2022/12/17 22:17:13;;;;;;;;;;;;;;;1.07;64.24;102710.25;4994126;28;19921;-68
2022/12/17 22:19:38;;;;;;;;;;;;;;;1.06;64.37;102721.88;4994365;28;19925;-69
2022/12/17 22:22:03;;;;;;;;;;;;;;;1.06;64.34;102716.56;4993279;28;20424;-69
2022/12/17 22:24:29;;;;;;;;;;;;;;;1.05;64.29;102726.34;4994333;28;19928;-68
2022/12/17 22:26:58;;;;;;;;;;;;;;;1.06;64.23;102721.88;4994599;28;19940;-68
2022/12/17 22:32:58;;;;;;;;;;;;;;;1.04;64.40;102715.84;4994359;28;19922;-69
2022/12/17 22:35:06;;;;;;;;;;;;;;;1.02;64.51;102731.94;4993793;28;19971;-69
2022/12/17 22:37:31;;;;;;;;;;;;;;;1.02;64.33;102728.44;4993037;28;20012;-69
2022/12/17 22:39:56;;;;;;;;;;;;;;;1.01;64.44;102730.25;4994266;28;20016;-69
2022/12/17 22:45:06;;;;;;;;;;;;;;;1.00;64.35;102722.41;4994523;28;20373;-69
2022/12/17 22:47:31;;;;;;;;;;;;;;;1.00;64.17;102722.41;4993186;28;19918;-68
2022/12/17 22:49:56;;;;;;;;;;;;;;;0.99;64.04;102710.06;4994198;28;19924;-69
2022/12/17 22:52:22;;;;;;;;;;;;;;;0.98;64.29;102705.72;4993310;28;20393;-68
2022/12/17 22:54:47;;;;;;;;;;;;;;;0.97;64.31;102710.19;4994177;28;20329;-69
2022/12/17 22:57:12;;;;;;;;;;;;;;;0.98;64.35;102705.72;4994572;28;19921;-69
2022/12/17 22:59:38;;;;;;;;;;;;;;;0.98;64.38;102703.03;4994296;28;19949;-69
2022/12/17 23:02:03;;;;;;;;;;;;;;;0.97;64.02;102699.56;4994390;28;19933;-69
2022/12/17 23:04:28;;;;;;;;;;;;;;;0.96;64.03;102694.34;4994351;28;20302;-69
2022/12/17 23:06:53;;;;;;;;;;;;;;;0.97;64.39;102701.38;4996190;28;19965;-70
2022/12/17 23:09:19;;;;;;;;;;;;;;;0.96;63.97;102705.00;4998380;28;19925;-70
2022/12/17 23:11:45;;;;;;;;;;;;;;;0.94;64.23;102699.81;4998342;28;20381;-68
2022/12/17 23:14:10;;;;;;;;;;;;;;;0.94;64.19;102691.84;4998241;28;20052;-72
2022/12/17 23:16:39;;;;;;;;;;;;;;;0.93;64.36;102695.44;4998320;28;19984;-69
2022/12/17 23:19:04;;;;;;;;;;;;;;;0.91;64.13;102691.25;4998458;28;19921;-69
2022/12/17 23:21:29;;;;;;;;;;;;;;;0.91;64.25;102699.22;4997104;28;19917;-70
2022/12/17 23:23:55;;;;;;;;;;;;;;;0.91;64.28;102699.22;4998427;28;20354;-69
2022/12/17 23:26:25;;;;;;;;;;;;;;;0.90;64.13;102695.72;4997785;28;20396;-68
2022/12/17 23:28:57;;;;;;;;;;;;;;;0.89;63.91;102693.22;4997898;28;19956;-68
2022/12/17 23:31:23;;;;;;;;;;;;;;;0.89;63.86;102690.56;4998119;28;19913;-68
2022/12/17 23:33:48;;;;;;;;;;;;;;;0.89;64.03;102696.72;4997707;28;19910;-68
2022/12/17 23:36:15;;;;;;;;;;;;;;;0.88;64.23;102694.16;4996786;28;20016;-70
2022/12/17 23:38:41;;;;;;;;;;;;;;;0.86;64.07;102695.16;4998399;28;20359;-69
2022/12/17 23:41:10;;;;;;;;;;;;;;;0.86;64.01;102697.81;4997910;28;20439;-68
2022/12/17 23:43:36;;;;;;;;;;;;;;;0.85;64.12;102696.09;4997781;28;19913;-69
2022/12/17 23:46:01;;;;;;;;;;;;;;;0.85;63.83;102698.78;4997796;28;19913;-69
2022/12/17 23:48:30;;;;;;;;;;;;;;;0.84;64.15;102710.41;4997882;28;19918;-69
2022/12/17 23:50:56;;;;;;;;;;;;;;;0.84;63.99;102710.41;4997339;28;20295;-69
2022/12/17 23:53:21;;;;;;;;;;;;;;;0.83;63.90;102710.50;4997950;28;19922;-68
2022/12/17 23:55:48;;;;;;;;;;;;;;;0.82;63.92;102706.19;4996203;28;20004;-73
2022/12/17 23:58:13;;;;;;;;;;;;;;;0.82;63.70;102703.53;4996311;28;19918;-69
